sensor_id;sensor_type;location;lat;lon;timestamp;P1;durP1;ratioP1;P2;durP2;ratioP2
73879;SDS011;62211;42.986;23.256;2023-02-02T00:01:36;13.85;;;5.88;;
73879;SDS011;62211;42.986;23.256;2023-02-02T00:04:02;14.55;;;6.10;;
73879;SDS011;62211;42.986;23.256;2023-02-02T00:06:28;13.60;;;6.10;;
73879;SDS011;62211;42.986;23.256;2023-02-02T00:08:55;12.45;;;5.00;;
73879;SDS011;62211;42.986;23.256;2023-02-02T00:11:22;9.38;;;4.45;;
73879;SDS011;62211;42.986;23.256;2023-02-02T00:13:48;13.20;;;5.07;;
73879;SDS011;62211;42.986;23.256;2023-02-02T00:18:58;5.63;;;3.28;;
73879;SDS011;62211;42.986;23.256;2023-02-02T00:23:50;5.13;;;2.67;;
73879;SDS011;62211;42.986;23.256;2023-02-02T00:26:16;4.65;;;2.97;;
73879;SDS011;62211;42.986;23.256;2023-02-02T00:28:42;5.03;;;2.15;;
73879;SDS011;62211;42.986;23.256;2023-02-02T00:31:08;3.03;;;2.33;;
73879;SDS011;62211;42.986;23.256;2023-02-02T00:33:33;2.13;;;2.00;;
73879;SDS011;62211;42.986;23.256;2023-02-02T00:35:59;6.88;;;3.78;;
73879;SDS011;62211;42.986;23.256;2023-02-02T00:38:24;3.58;;;2.42;;
73879;SDS011;62211;42.986;23.256;2023-02-02T00:40:50;7.05;;;3.40;;
73879;SDS011;62211;42.986;23.256;2023-02-02T00:43:15;3.53;;;2.38;;
73879;SDS011;62211;42.986;23.256;2023-02-02T00:45:40;3.95;;;2.85;;
73879;SDS011;62211;42.986;23.256;2023-02-02T00:48:06;5.07;;;2.55;;
73879;SDS011;62211;42.986;23.256;2023-02-02T00:50:32;2.45;;;2.15;;
73879;SDS011;62211;42.986;23.256;2023-02-02T00:52:57;4.30;;;2.55;;
73879;SDS011;62211;42.986;23.256;2023-02-02T00:55:23;2.40;;;1.65;;
73879;SDS011;62211;42.986;23.256;2023-02-02T00:57:49;3.45;;;2.72;;
73879;SDS011;62211;42.986;23.256;2023-02-02T01:00:16;2.45;;;2.05;;
73879;SDS011;62211;42.986;23.256;2023-02-02T01:02:43;2.67;;;1.67;;
73879;SDS011;62211;42.986;23.256;2023-02-02T01:05:12;4.35;;;2.83;;
73879;SDS011;62211;42.986;23.256;2023-02-02T01:07:38;7.18;;;3.60;;
73879;SDS011;62211;42.986;23.256;2023-02-02T01:10:04;10.27;;;3.28;;
73879;SDS011;62211;42.986;23.256;2023-02-02T01:12:32;2.78;;;2.33;;
73879;SDS011;62211;42.986;23.256;2023-02-02T01:14:57;11.32;;;4.45;;
73879;SDS011;62211;42.986;23.256;2023-02-02T01:17:23;5.50;;;2.97;;
73879;SDS011;62211;42.986;23.256;2023-02-02T01:19:48;5.50;;;2.90;;
73879;SDS011;62211;42.986;23.256;2023-02-02T01:22:14;3.28;;;2.30;;
73879;SDS011;62211;42.986;23.256;2023-02-02T01:24:39;5.30;;;2.65;;
73879;SDS011;62211;42.986;23.256;2023-02-02T01:27:04;5.15;;;3.08;;
73879;SDS011;62211;42.986;23.256;2023-02-02T01:29:30;4.18;;;2.58;;
73879;SDS011;62211;42.986;23.256;2023-02-02T01:31:56;8.77;;;4.18;;
73879;SDS011;62211;42.986;23.256;2023-02-02T01:34:21;2.47;;;2.28;;
73879;SDS011;62211;42.986;23.256;2023-02-02T01:36:47;2.47;;;1.70;;
73879;SDS011;62211;42.986;23.256;2023-02-02T01:39:12;4.35;;;2.63;;
73879;SDS011;62211;42.986;23.256;2023-02-02T01:41:39;3.95;;;2.83;;
73879;SDS011;62211;42.986;23.256;2023-02-02T01:44:05;4.03;;;2.65;;
73879;SDS011;62211;42.986;23.256;2023-02-02T01:46:51;6.50;;;2.13;;
73879;SDS011;62211;42.986;23.256;2023-02-02T01:49:16;5.47;;;2.30;;
73879;SDS011;62211;42.986;23.256;2023-02-02T01:51:50;6.72;;;3.13;;
73879;SDS011;62211;42.986;23.256;2023-02-02T01:54:27;7.55;;;2.25;;
73879;SDS011;62211;42.986;23.256;2023-02-02T01:56:57;5.35;;;2.78;;
73879;SDS011;62211;42.986;23.256;2023-02-02T01:59:25;5.88;;;3.00;;
73879;SDS011;62211;42.986;23.256;2023-02-02T02:01:51;4.22;;;2.80;;
73879;SDS011;62211;42.986;23.256;2023-02-02T02:04:18;2.53;;;1.95;;
73879;SDS011;62211;42.986;23.256;2023-02-02T02:06:45;3.15;;;2.78;;
73879;SDS011;62211;42.986;23.256;2023-02-02T02:09:12;3.92;;;2.33;;
73879;SDS011;62211;42.986;23.256;2023-02-02T02:11:38;5.55;;;2.90;;
73879;SDS011;62211;42.986;23.256;2023-02-02T02:14:04;5.03;;;3.10;;
73879;SDS011;62211;42.986;23.256;2023-02-02T02:34:30;5.55;;;3.28;;
73879;SDS011;62211;42.986;23.256;2023-02-02T02:42:20;5.20;;;3.60;;
73879;SDS011;62211;42.986;23.256;2023-02-02T02:44:48;6.15;;;2.75;;
73879;SDS011;62211;42.986;23.256;2023-02-02T02:47:13;5.05;;;3.83;;
73879;SDS011;62211;42.986;23.256;2023-02-02T02:49:42;6.78;;;2.95;;
73879;SDS011;62211;42.986;23.256;2023-02-02T02:52:09;5.50;;;2.78;;
73879;SDS011;62211;42.986;23.256;2023-02-02T02:54:35;5.97;;;3.42;;
73879;SDS011;62211;42.986;23.256;2023-02-02T02:59:44;5.32;;;3.60;;
73879;SDS011;62211;42.986;23.256;2023-02-02T03:05:51;8.50;;;4.03;;
73879;SDS011;62211;42.986;23.256;2023-02-02T03:10:58;6.38;;;3.97;;
73879;SDS011;62211;42.986;23.256;2023-02-02T03:13:26;7.50;;;3.45;;
73879;SDS011;62211;42.986;23.256;2023-02-02T03:15:52;5.72;;;4.13;;
73879;SDS011;62211;42.986;23.256;2023-02-02T03:18:18;9.65;;;3.45;;
73879;SDS011;62211;42.986;23.256;2023-02-02T03:20:44;8.40;;;3.30;;
73879;SDS011;62211;42.986;23.256;2023-02-02T03:23:10;7.32;;;3.25;;
73879;SDS011;62211;42.986;23.256;2023-02-02T03:25:36;5.07;;;2.33;;
73879;SDS011;62211;42.986;23.256;2023-02-02T03:28:01;3.92;;;2.92;;
73879;SDS011;62211;42.986;23.256;2023-02-02T03:30:27;2.35;;;2.15;;
73879;SDS011;62211;42.986;23.256;2023-02-02T03:32:52;5.07;;;2.35;;
73879;SDS011;62211;42.986;23.256;2023-02-02T03:35:18;3.60;;;2.55;;
73879;SDS011;62211;42.986;23.256;2023-02-02T03:37:45;4.35;;;1.67;;
73879;SDS011;62211;42.986;23.256;2023-02-02T03:40:11;6.25;;;2.70;;
73879;SDS011;62211;42.986;23.256;2023-02-02T03:42:36;4.20;;;2.90;;
73879;SDS011;62211;42.986;23.256;2023-02-02T03:45:02;2.72;;;2.53;;
73879;SDS011;62211;42.986;23.256;2023-02-02T03:47:28;19.05;;;5.72;;
73879;SDS011;62211;42.986;23.256;2023-02-02T03:49:54;4.30;;;3.53;;
73879;SDS011;62211;42.986;23.256;2023-02-02T03:52:20;4.18;;;2.65;;
73879;SDS011;62211;42.986;23.256;2023-02-02T03:54:45;4.60;;;2.40;;
73879;SDS011;62211;42.986;23.256;2023-02-02T03:57:10;3.85;;;2.80;;
73879;SDS011;62211;42.986;23.256;2023-02-02T03:59:36;6.68;;;2.97;;
73879;SDS011;62211;42.986;23.256;2023-02-02T04:02:02;6.07;;;2.75;;
73879;SDS011;62211;42.986;23.256;2023-02-02T04:04:27;3.10;;;2.45;;
73879;SDS011;62211;42.986;23.256;2023-02-02T04:06:52;4.07;;;3.38;;
73879;SDS011;62211;42.986;23.256;2023-02-02T04:09:18;4.72;;;2.97;;
73879;SDS011;62211;42.986;23.256;2023-02-02T04:11:43;5.25;;;3.38;;
73879;SDS011;62211;42.986;23.256;2023-02-02T04:14:09;5.90;;;3.58;;
73879;SDS011;62211;42.986;23.256;2023-02-02T04:16:34;4.75;;;2.50;;
73879;SDS011;62211;42.986;23.256;2023-02-02T04:19:02;3.67;;;2.33;;
73879;SDS011;62211;42.986;23.256;2023-02-02T04:21:28;4.38;;;2.90;;
73879;SDS011;62211;42.986;23.256;2023-02-02T04:23:54;5.75;;;3.35;;
73879;SDS011;62211;42.986;23.256;2023-02-02T04:26:20;5.88;;;3.65;;
73879;SDS011;62211;42.986;23.256;2023-02-02T04:28:45;6.05;;;2.95;;
73879;SDS011;62211;42.986;23.256;2023-02-02T04:31:11;6.93;;;3.08;;
73879;SDS011;62211;42.986;23.256;2023-02-02T04:33:36;3.95;;;3.15;;
73879;SDS011;62211;42.986;23.256;2023-02-02T04:36:02;3.72;;;2.65;;
73879;SDS011;62211;42.986;23.256;2023-02-02T04:38:28;4.93;;;3.17;;
73879;SDS011;62211;42.986;23.256;2023-02-02T04:40:53;5.22;;;3.20;;
73879;SDS011;62211;42.986;23.256;2023-02-02T04:43:18;5.47;;;3.45;;
73879;SDS011;62211;42.986;23.256;2023-02-02T04:45:44;6.78;;;4.00;;
73879;SDS011;62211;42.986;23.256;2023-02-02T04:48:09;5.65;;;3.70;;
73879;SDS011;62211;42.986;23.256;2023-02-02T04:50:35;4.95;;;3.00;;
73879;SDS011;62211;42.986;23.256;2023-02-02T04:53:00;6.07;;;3.38;;
73879;SDS011;62211;42.986;23.256;2023-02-02T04:55:25;8.82;;;4.05;;
73879;SDS011;62211;42.986;23.256;2023-02-02T04:57:51;6.93;;;3.92;;
73879;SDS011;62211;42.986;23.256;2023-02-02T05:00:16;11.18;;;4.22;;
73879;SDS011;62211;42.986;23.256;2023-02-02T05:02:42;7.80;;;4.18;;
73879;SDS011;62211;42.986;23.256;2023-02-02T05:05:09;8.32;;;4.30;;
73879;SDS011;62211;42.986;23.256;2023-02-02T05:07:36;6.68;;;4.38;;
73879;SDS011;62211;42.986;23.256;2023-02-02T05:10:02;10.55;;;4.68;;
73879;SDS011;62211;42.986;23.256;2023-02-02T05:12:28;7.25;;;4.28;;
73879;SDS011;62211;42.986;23.256;2023-02-02T05:14:54;6.95;;;4.63;;
73879;SDS011;62211;42.986;23.256;2023-02-02T05:17:19;15.88;;;6.95;;
73879;SDS011;62211;42.986;23.256;2023-02-02T05:19:45;13.27;;;7.07;;
73879;SDS011;62211;42.986;23.256;2023-02-02T05:22:10;17.48;;;7.80;;
73879;SDS011;62211;42.986;23.256;2023-02-02T05:24:35;16.35;;;6.22;;
73879;SDS011;62211;42.986;23.256;2023-02-02T05:27:01;11.02;;;5.50;;
73879;SDS011;62211;42.986;23.256;2023-02-02T05:29:27;9.88;;;6.57;;
73879;SDS011;62211;42.986;23.256;2023-02-02T05:31:53;11.77;;;5.82;;
73879;SDS011;62211;42.986;23.256;2023-02-02T05:34:19;12.60;;;6.93;;
73879;SDS011;62211;42.986;23.256;2023-02-02T05:36:44;20.60;;;7.53;;
73879;SDS011;62211;42.986;23.256;2023-02-02T05:39:10;12.85;;;7.50;;
73879;SDS011;62211;42.986;23.256;2023-02-02T05:41:35;27.13;;;13.32;;
73879;SDS011;62211;42.986;23.256;2023-02-02T05:44:01;37.10;;;16.30;;
73879;SDS011;62211;42.986;23.256;2023-02-02T05:46:27;30.60;;;15.50;;
73879;SDS011;62211;42.986;23.256;2023-02-02T05:48:52;26.02;;;12.73;;
73879;SDS011;62211;42.986;23.256;2023-02-02T05:51:19;24.27;;;12.00;;
73879;SDS011;62211;42.986;23.256;2023-02-02T05:53:46;21.40;;;12.80;;
73879;SDS011;62211;42.986;23.256;2023-02-02T05:56:12;25.63;;;13.18;;
73879;SDS011;62211;42.986;23.256;2023-02-02T05:58:39;22.40;;;11.68;;
73879;SDS011;62211;42.986;23.256;2023-02-02T06:01:05;29.92;;;16.23;;
73879;SDS011;62211;42.986;23.256;2023-02-02T06:03:30;33.35;;;16.35;;
73879;SDS011;62211;42.986;23.256;2023-02-02T06:05:56;20.77;;;9.82;;
73879;SDS011;62211;42.986;23.256;2023-02-02T06:08:21;20.70;;;9.98;;
73879;SDS011;62211;42.986;23.256;2023-02-02T06:10:46;19.50;;;8.40;;
73879;SDS011;62211;42.986;23.256;2023-02-02T06:13:12;16.27;;;7.07;;
73879;SDS011;62211;42.986;23.256;2023-02-02T06:15:37;10.23;;;6.88;;
73879;SDS011;62211;42.986;23.256;2023-02-02T06:18:03;37.35;;;12.85;;
73879;SDS011;62211;42.986;23.256;2023-02-02T06:20:30;18.45;;;7.88;;
73879;SDS011;62211;42.986;23.256;2023-02-02T06:22:56;23.35;;;9.45;;
73879;SDS011;62211;42.986;23.256;2023-02-02T06:25:21;7.95;;;4.60;;
73879;SDS011;62211;42.986;23.256;2023-02-02T06:27:47;7.60;;;4.65;;
73879;SDS011;62211;42.986;23.256;2023-02-02T06:30:13;3.75;;;3.20;;
73879;SDS011;62211;42.986;23.256;2023-02-02T06:32:39;20.27;;;8.98;;
73879;SDS011;62211;42.986;23.256;2023-02-02T06:35:05;10.38;;;6.40;;
73879;SDS011;62211;42.986;23.256;2023-02-02T06:37:31;9.48;;;5.50;;
73879;SDS011;62211;42.986;23.256;2023-02-02T06:39:58;6.22;;;4.60;;
73879;SDS011;62211;42.986;23.256;2023-02-02T06:42:23;11.75;;;5.13;;
73879;SDS011;62211;42.986;23.256;2023-02-02T06:44:49;12.07;;;4.90;;
73879;SDS011;62211;42.986;23.256;2023-02-02T06:47:14;6.45;;;5.22;;
73879;SDS011;62211;42.986;23.256;2023-02-02T06:49:39;7.88;;;5.00;;
73879;SDS011;62211;42.986;23.256;2023-02-02T06:52:05;12.48;;;7.32;;
73879;SDS011;62211;42.986;23.256;2023-02-02T06:54:31;11.38;;;5.63;;
73879;SDS011;62211;42.986;23.256;2023-02-02T06:56:56;7.60;;;3.75;;
73879;SDS011;62211;42.986;23.256;2023-02-02T06:59:22;18.40;;;9.63;;
73879;SDS011;62211;42.986;23.256;2023-02-02T07:01:48;43.90;;;18.58;;
73879;SDS011;62211;42.986;23.256;2023-02-02T07:04:15;139.25;;;43.20;;
73879;SDS011;62211;42.986;23.256;2023-02-02T07:06:41;81.45;;;32.30;;
73879;SDS011;62211;42.986;23.256;2023-02-02T07:09:07;137.30;;;49.00;;
73879;SDS011;62211;42.986;23.256;2023-02-02T07:11:32;95.68;;;38.10;;
73879;SDS011;62211;42.986;23.256;2023-02-02T07:13:59;96.25;;;37.15;;
73879;SDS011;62211;42.986;23.256;2023-02-02T07:16:25;108.22;;;42.67;;
73879;SDS011;62211;42.986;23.256;2023-02-02T07:18:50;111.30;;;47.83;;
73879;SDS011;62211;42.986;23.256;2023-02-02T07:21:18;134.90;;;50.78;;
73879;SDS011;62211;42.986;23.256;2023-02-02T07:23:45;142.90;;;51.53;;
73879;SDS011;62211;42.986;23.256;2023-02-02T07:26:11;57.05;;;23.15;;
73879;SDS011;62211;42.986;23.256;2023-02-02T07:28:38;37.50;;;15.30;;
73879;SDS011;62211;42.986;23.256;2023-02-02T07:31:17;60.08;;;25.25;;
73879;SDS011;62211;42.986;23.256;2023-02-02T07:33:44;40.58;;;16.95;;
73879;SDS011;62211;42.986;23.256;2023-02-02T07:36:11;43.97;;;15.85;;
73879;SDS011;62211;42.986;23.256;2023-02-02T07:38:38;16.42;;;8.80;;
73879;SDS011;62211;42.986;23.256;2023-02-02T07:41:03;21.05;;;10.93;;
73879;SDS011;62211;42.986;23.256;2023-02-02T07:43:29;20.27;;;10.73;;
73879;SDS011;62211;42.986;23.256;2023-02-02T07:45:58;19.35;;;9.70;;
73879;SDS011;62211;42.986;23.256;2023-02-02T07:48:26;17.85;;;9.38;;
73879;SDS011;62211;42.986;23.256;2023-02-02T07:50:53;14.75;;;7.78;;
73879;SDS011;62211;42.986;23.256;2023-02-02T07:53:18;19.67;;;10.55;;
73879;SDS011;62211;42.986;23.256;2023-02-02T07:55:45;11.70;;;7.30;;
73879;SDS011;62211;42.986;23.256;2023-02-02T07:58:10;4.65;;;3.65;;
73879;SDS011;62211;42.986;23.256;2023-02-02T08:00:36;6.35;;;3.63;;
73879;SDS011;62211;42.986;23.256;2023-02-02T08:03:01;11.07;;;5.40;;
73879;SDS011;62211;42.986;23.256;2023-02-02T08:05:26;6.63;;;3.38;;
73879;SDS011;62211;42.986;23.256;2023-02-02T08:07:52;6.68;;;3.83;;
73879;SDS011;62211;42.986;23.256;2023-02-02T08:10:17;7.35;;;4.93;;
73879;SDS011;62211;42.986;23.256;2023-02-02T08:12:43;8.68;;;4.63;;
73879;SDS011;62211;42.986;23.256;2023-02-02T08:15:08;10.55;;;5.32;;
73879;SDS011;62211;42.986;23.256;2023-02-02T08:17:34;12.00;;;6.03;;
73879;SDS011;62211;42.986;23.256;2023-02-02T08:20:01;8.00;;;5.45;;
73879;SDS011;62211;42.986;23.256;2023-02-02T08:22:27;4.43;;;3.08;;
73879;SDS011;62211;42.986;23.256;2023-02-02T08:24:52;6.55;;;3.20;;
73879;SDS011;62211;42.986;23.256;2023-02-02T08:27:18;8.60;;;3.40;;
73879;SDS011;62211;42.986;23.256;2023-02-02T08:29:43;11.45;;;4.97;;
73879;SDS011;62211;42.986;23.256;2023-02-02T08:32:08;2.33;;;2.15;;
73879;SDS011;62211;42.986;23.256;2023-02-02T08:34:34;5.07;;;3.42;;
73879;SDS011;62211;42.986;23.256;2023-02-02T08:37:01;4.28;;;2.92;;
73879;SDS011;62211;42.986;23.256;2023-02-02T08:39:27;8.10;;;4.03;;
73879;SDS011;62211;42.986;23.256;2023-02-02T08:41:55;4.22;;;3.13;;
73879;SDS011;62211;42.986;23.256;2023-02-02T08:44:21;9.57;;;4.75;;
73879;SDS011;62211;42.986;23.256;2023-02-02T08:46:46;2.72;;;2.38;;
73879;SDS011;62211;42.986;23.256;2023-02-02T08:49:12;4.70;;;3.55;;
73879;SDS011;62211;42.986;23.256;2023-02-02T08:51:37;18.48;;;8.35;;
73879;SDS011;62211;42.986;23.256;2023-02-02T08:54:03;7.45;;;4.15;;
73879;SDS011;62211;42.986;23.256;2023-02-02T08:56:29;9.85;;;6.55;;
73879;SDS011;62211;42.986;23.256;2023-02-02T08:58:55;5.28;;;3.20;;
73879;SDS011;62211;42.986;23.256;2023-02-02T09:06:25;5.72;;;3.40;;
73879;SDS011;62211;42.986;23.256;2023-02-02T09:09:02;3.63;;;2.72;;
73879;SDS011;62211;42.986;23.256;2023-02-02T09:11:28;3.10;;;2.17;;
73879;SDS011;62211;42.986;23.256;2023-02-02T09:13:55;5.25;;;4.43;;
73879;SDS011;62211;42.986;23.256;2023-02-02T09:16:22;5.80;;;3.67;;
73879;SDS011;62211;42.986;23.256;2023-02-02T09:18:48;6.00;;;3.63;;
73879;SDS011;62211;42.986;23.256;2023-02-02T09:21:14;11.13;;;4.88;;
73879;SDS011;62211;42.986;23.256;2023-02-02T09:23:41;7.97;;;4.82;;
73879;SDS011;62211;42.986;23.256;2023-02-02T09:29:03;4.45;;;3.38;;
73879;SDS011;62211;42.986;23.256;2023-02-02T09:31:31;4.05;;;3.30;;
73879;SDS011;62211;42.986;23.256;2023-02-02T09:34:01;4.05;;;2.53;;
73879;SDS011;62211;42.986;23.256;2023-02-02T09:36:31;7.40;;;3.47;;
73879;SDS011;62211;42.986;23.256;2023-02-02T09:38:57;4.20;;;2.03;;
73879;SDS011;62211;42.986;23.256;2023-02-02T09:49:06;4.47;;;2.50;;
73879;SDS011;62211;42.986;23.256;2023-02-02T09:51:36;4.93;;;2.17;;
73879;SDS011;62211;42.986;23.256;2023-02-02T09:54:27;3.92;;;2.00;;
73879;SDS011;62211;42.986;23.256;2023-02-02T09:56:58;5.57;;;2.83;;
73879;SDS011;62211;42.986;23.256;2023-02-02T09:59:26;8.40;;;3.20;;
73879;SDS011;62211;42.986;23.256;2023-02-02T10:01:56;4.97;;;1.80;;
73879;SDS011;62211;42.986;23.256;2023-02-02T10:06:53;5.82;;;2.95;;
73879;SDS011;62211;42.986;23.256;2023-02-02T10:17:39;5.50;;;3.17;;
73879;SDS011;62211;42.986;23.256;2023-02-02T10:22:58;6.35;;;4.00;;
73879;SDS011;62211;42.986;23.256;2023-02-02T10:25:30;5.07;;;3.80;;
73879;SDS011;62211;42.986;23.256;2023-02-02T10:28:03;15.43;;;6.38;;
73879;SDS011;62211;42.986;23.256;2023-02-02T10:30:36;7.47;;;3.40;;
73879;SDS011;62211;42.986;23.256;2023-02-02T10:33:14;3.55;;;2.95;;
73879;SDS011;62211;42.986;23.256;2023-02-02T10:38:40;9.10;;;3.28;;
73879;SDS011;62211;42.986;23.256;2023-02-02T10:41:32;3.67;;;2.75;;
73879;SDS011;62211;42.986;23.256;2023-02-02T10:44:24;7.03;;;4.03;;
73879;SDS011;62211;42.986;23.256;2023-02-02T10:46:55;7.35;;;4.53;;
73879;SDS011;62211;42.986;23.256;2023-02-02T10:49:38;6.00;;;3.78;;
73879;SDS011;62211;42.986;23.256;2023-02-02T10:57:19;4.25;;;2.78;;
73879;SDS011;62211;42.986;23.256;2023-02-02T11:02:34;16.88;;;8.77;;
73879;SDS011;62211;42.986;23.256;2023-02-02T11:05:00;8.23;;;4.38;;
73879;SDS011;62211;42.986;23.256;2023-02-02T11:07:44;12.40;;;3.72;;
73879;SDS011;62211;42.986;23.256;2023-02-02T11:10:09;3.05;;;2.60;;
73879;SDS011;62211;42.986;23.256;2023-02-02T11:12:35;2.13;;;2.03;;
73879;SDS011;62211;42.986;23.256;2023-02-02T11:15:06;3.13;;;2.45;;
73879;SDS011;62211;42.986;23.256;2023-02-02T11:17:46;6.72;;;3.33;;
73879;SDS011;62211;42.986;23.256;2023-02-02T11:20:34;5.15;;;2.30;;
73879;SDS011;62211;42.986;23.256;2023-02-02T11:23:03;4.35;;;2.13;;
73879;SDS011;62211;42.986;23.256;2023-02-02T11:25:37;3.00;;;2.58;;
73879;SDS011;62211;42.986;23.256;2023-02-02T11:28:18;6.43;;;3.13;;
73879;SDS011;62211;42.986;23.256;2023-02-02T11:30:47;4.93;;;3.15;;
73879;SDS011;62211;42.986;23.256;2023-02-02T11:35:55;1.58;;;1.42;;
73879;SDS011;62211;42.986;23.256;2023-02-02T11:38:24;4.28;;;2.00;;
73879;SDS011;62211;42.986;23.256;2023-02-02T11:41:01;4.68;;;2.85;;
73879;SDS011;62211;42.986;23.256;2023-02-02T11:43:29;4.25;;;2.00;;
73879;SDS011;62211;42.986;23.256;2023-02-02T11:46:02;2.38;;;2.17;;
73879;SDS011;62211;42.986;23.256;2023-02-02T11:48:31;3.55;;;1.80;;
73879;SDS011;62211;42.986;23.256;2023-02-02T11:51:01;3.88;;;2.60;;
73879;SDS011;62211;42.986;23.256;2023-02-02T11:53:31;5.15;;;1.98;;
73879;SDS011;62211;42.986;23.256;2023-02-02T11:55:59;5.32;;;2.60;;
73879;SDS011;62211;42.986;23.256;2023-02-02T11:58:42;9.48;;;3.92;;
73879;SDS011;62211;42.986;23.256;2023-02-02T12:01:10;3.35;;;2.83;;
73879;SDS011;62211;42.986;23.256;2023-02-02T12:03:48;4.65;;;2.50;;
73879;SDS011;62211;42.986;23.256;2023-02-02T12:06:21;5.35;;;3.45;;
73879;SDS011;62211;42.986;23.256;2023-02-02T12:08:52;5.10;;;2.75;;
73879;SDS011;62211;42.986;23.256;2023-02-02T12:11:39;2.17;;;1.77;;
73879;SDS011;62211;42.986;23.256;2023-02-02T12:14:24;4.63;;;2.92;;
73879;SDS011;62211;42.986;23.256;2023-02-02T12:24:55;9.38;;;1.38;;
73879;SDS011;62211;42.986;23.256;2023-02-02T12:27:38;10.20;;;2.67;;
73879;SDS011;62211;42.986;23.256;2023-02-02T12:35:47;2.88;;;1.95;;
73879;SDS011;62211;42.986;23.256;2023-02-02T12:44:08;6.88;;;2.15;;
73879;SDS011;62211;42.986;23.256;2023-02-02T12:52:01;4.90;;;2.10;;
73879;SDS011;62211;42.986;23.256;2023-02-02T12:54:42;8.50;;;3.28;;
73879;SDS011;62211;42.986;23.256;2023-02-02T12:57:14;1.83;;;1.55;;
73879;SDS011;62211;42.986;23.256;2023-02-02T13:11:06;3.30;;;2.45;;
73879;SDS011;62211;42.986;23.256;2023-02-02T13:13:54;1.88;;;1.77;;
73879;SDS011;62211;42.986;23.256;2023-02-02T13:16:22;2.45;;;2.25;;
73879;SDS011;62211;42.986;23.256;2023-02-02T13:18:54;5.90;;;2.53;;
73879;SDS011;62211;42.986;23.256;2023-02-02T13:21:24;4.72;;;2.33;;
73879;SDS011;62211;42.986;23.256;2023-02-02T13:23:51;2.35;;;1.88;;
73879;SDS011;62211;42.986;23.256;2023-02-02T13:26:28;7.57;;;2.97;;
73879;SDS011;62211;42.986;23.256;2023-02-02T13:39:55;9.20;;;3.90;;
73879;SDS011;62211;42.986;23.256;2023-02-02T13:42:35;6.88;;;3.40;;
73879;SDS011;62211;42.986;23.256;2023-02-02T13:45:05;6.68;;;4.53;;
73879;SDS011;62211;42.986;23.256;2023-02-02T13:47:48;3.88;;;2.15;;
73879;SDS011;62211;42.986;23.256;2023-02-02T13:50:29;1.17;;;1.15;;
73879;SDS011;62211;42.986;23.256;2023-02-02T13:53:16;3.80;;;2.20;;
73879;SDS011;62211;42.986;23.256;2023-02-02T13:59:18;3.70;;;2.30;;
73879;SDS011;62211;42.986;23.256;2023-02-02T14:01:08;2.28;;;1.77;;
73879;SDS011;62211;42.986;23.256;2023-02-02T14:03:36;4.05;;;3.42;;
73879;SDS011;62211;42.986;23.256;2023-02-02T14:06:04;3.10;;;2.55;;
73879;SDS011;62211;42.986;23.256;2023-02-02T14:08:32;7.07;;;3.20;;
73879;SDS011;62211;42.986;23.256;2023-02-02T14:10:59;3.85;;;3.33;;
73879;SDS011;62211;42.986;23.256;2023-02-02T14:13:29;4.93;;;2.78;;
73879;SDS011;62211;42.986;23.256;2023-02-02T14:19:13;3.20;;;2.78;;
73879;SDS011;62211;42.986;23.256;2023-02-02T14:22:03;5.38;;;2.67;;
73879;SDS011;62211;42.986;23.256;2023-02-02T14:26:59;5.70;;;4.57;;
73879;SDS011;62211;42.986;23.256;2023-02-02T14:34:34;7.53;;;4.38;;
73879;SDS011;62211;42.986;23.256;2023-02-02T14:39:36;17.10;;;10.68;;
73879;SDS011;62211;42.986;23.256;2023-02-02T14:45:27;6.30;;;3.67;;
73879;SDS011;62211;42.986;23.256;2023-02-02T14:50:50;4.28;;;3.83;;
73879;SDS011;62211;42.986;23.256;2023-02-02T14:55:53;5.22;;;4.05;;
73879;SDS011;62211;42.986;23.256;2023-02-02T14:58:31;7.93;;;4.38;;
73879;SDS011;62211;42.986;23.256;2023-02-02T15:01:02;5.65;;;4.13;;
73879;SDS011;62211;42.986;23.256;2023-02-02T15:03:48;5.45;;;2.67;;
73879;SDS011;62211;42.986;23.256;2023-02-02T15:08:54;6.85;;;5.07;;
73879;SDS011;62211;42.986;23.256;2023-02-02T15:26:36;4.90;;;3.95;;
73879;SDS011;62211;42.986;23.256;2023-02-02T15:28:41;1.88;;;1.77;;
73879;SDS011;62211;42.986;23.256;2023-02-02T15:34:10;10.38;;;3.90;;
73879;SDS011;62211;42.986;23.256;2023-02-02T15:36:41;6.25;;;3.42;;
73879;SDS011;62211;42.986;23.256;2023-02-02T15:39:10;3.38;;;3.08;;
73879;SDS011;62211;42.986;23.256;2023-02-02T15:41:42;7.13;;;3.35;;
73879;SDS011;62211;42.986;23.256;2023-02-02T15:44:24;3.00;;;2.40;;
73879;SDS011;62211;42.986;23.256;2023-02-02T15:46:51;2.47;;;1.90;;
73879;SDS011;62211;42.986;23.256;2023-02-02T15:51:47;3.58;;;1.33;;
73879;SDS011;62211;42.986;23.256;2023-02-02T15:54:24;1.95;;;1.80;;
73879;SDS011;62211;42.986;23.256;2023-02-02T15:56:54;5.03;;;3.17;;
73879;SDS011;62211;42.986;23.256;2023-02-02T15:59:25;0.70;;;0.70;;
73879;SDS011;62211;42.986;23.256;2023-02-02T16:04:36;2.45;;;1.45;;
73879;SDS011;62211;42.986;23.256;2023-02-02T16:07:09;1.17;;;1.17;;
73879;SDS011;62211;42.986;23.256;2023-02-02T16:09:37;2.58;;;1.90;;
73879;SDS011;62211;42.986;23.256;2023-02-02T16:12:03;6.45;;;4.80;;
73879;SDS011;62211;42.986;23.256;2023-02-02T16:14:29;14.02;;;9.30;;
73879;SDS011;62211;42.986;23.256;2023-02-02T16:20:17;13.15;;;7.80;;
73879;SDS011;62211;42.986;23.256;2023-02-02T16:22:43;8.30;;;4.30;;
73879;SDS011;62211;42.986;23.256;2023-02-02T16:25:12;9.93;;;5.78;;
73879;SDS011;62211;42.986;23.256;2023-02-02T16:27:40;4.65;;;4.13;;
73879;SDS011;62211;42.986;23.256;2023-02-02T16:30:08;9.27;;;4.10;;
73879;SDS011;62211;42.986;23.256;2023-02-02T16:32:47;7.43;;;3.88;;
73879;SDS011;62211;42.986;23.256;2023-02-02T16:35:29;4.70;;;2.15;;
73879;SDS011;62211;42.986;23.256;2023-02-02T16:38:13;4.32;;;2.67;;
73879;SDS011;62211;42.986;23.256;2023-02-02T16:40:39;3.58;;;3.33;;
73879;SDS011;62211;42.986;23.256;2023-02-02T16:43:06;20.17;;;9.10;;
73879;SDS011;62211;42.986;23.256;2023-02-02T16:45:51;3.70;;;2.53;;
73879;SDS011;62211;42.986;23.256;2023-02-02T16:53:40;2.40;;;2.20;;
73879;SDS011;62211;42.986;23.256;2023-02-02T16:56:06;0.93;;;0.93;;
73879;SDS011;62211;42.986;23.256;2023-02-02T16:58:34;1.35;;;1.27;;
73879;SDS011;62211;42.986;23.256;2023-02-02T17:01:06;2.10;;;2.00;;
73879;SDS011;62211;42.986;23.256;2023-02-02T17:03:34;1.45;;;1.10;;
73879;SDS011;62211;42.986;23.256;2023-02-02T17:06:00;3.13;;;1.90;;
73879;SDS011;62211;42.986;23.256;2023-02-02T17:08:28;1.75;;;1.02;;
73879;SDS011;62211;42.986;23.256;2023-02-02T17:11:29;2.97;;;1.67;;
73879;SDS011;62211;42.986;23.256;2023-02-02T17:13:48;4.05;;;2.22;;
73879;SDS011;62211;42.986;23.256;2023-02-02T17:16:17;5.63;;;2.00;;
73879;SDS011;62211;42.986;23.256;2023-02-02T17:18:44;3.20;;;1.98;;
73879;SDS011;62211;42.986;23.256;2023-02-02T17:21:20;2.70;;;1.65;;
73879;SDS011;62211;42.986;23.256;2023-02-02T17:23:48;3.40;;;2.08;;
73879;SDS011;62211;42.986;23.256;2023-02-02T17:26:15;2.72;;;2.22;;
73879;SDS011;62211;42.986;23.256;2023-02-02T17:28:41;4.43;;;3.03;;
73879;SDS011;62211;42.986;23.256;2023-02-02T17:31:07;8.02;;;4.15;;
73879;SDS011;62211;42.986;23.256;2023-02-02T17:33:35;7.20;;;3.53;;
73879;SDS011;62211;42.986;23.256;2023-02-02T17:36:01;1.77;;;1.65;;
73879;SDS011;62211;42.986;23.256;2023-02-02T17:38:27;1.77;;;1.67;;
73879;SDS011;62211;42.986;23.256;2023-02-02T17:40:53;4.90;;;3.55;;
73879;SDS011;62211;42.986;23.256;2023-02-02T17:43:19;6.80;;;5.18;;
73879;SDS011;62211;42.986;23.256;2023-02-02T17:45:45;4.88;;;4.10;;